sensor_id;sensor_type;location;lat;lon;timestamp;P1;durP1;ratioP1;P2;durP2;ratioP2
37169;SDS011;23062;13.952;100.608;2022-09-09T00:07:59;14.00;;;10.00;;
37169;SDS011;23062;13.952;100.608;2022-09-09T00:13:14;15.00;;;11.00;;
37169;SDS011;23062;13.952;100.608;2022-09-09T00:18:05;16.00;;;12.00;;
37169;SDS011;23062;13.952;100.608;2022-09-09T00:23:05;15.00;;;11.00;;
37169;SDS011;23062;13.952;100.608;2022-09-09T00:27:54;12.00;;;9.00;;
37169;SDS011;23062;13.952;100.608;2022-09-09T00:32:44;13.00;;;9.00;;
37169;SDS011;23062;13.952;100.608;2022-09-09T00:37:33;13.00;;;9.00;;
37169;SDS011;23062;13.952;100.608;2022-09-09T00:42:24;10.00;;;8.00;;
37169;SDS011;23062;13.952;100.608;2022-09-09T00:47:34;13.00;;;10.00;;
37169;SDS011;23062;13.952;100.608;2022-09-09T00:57:55;13.00;;;10.00;;
37169;SDS011;23062;13.952;100.608;2022-09-09T01:08:06;13.00;;;9.00;;
37169;SDS011;23062;13.952;100.608;2022-09-09T01:12:56;12.00;;;9.00;;
37169;SDS011;23062;13.952;100.608;2022-09-09T01:28:00;11.00;;;8.00;;
37169;SDS011;23062;13.952;100.608;2022-09-09T01:32:50;12.00;;;9.00;;
37169;SDS011;23062;13.952;100.608;2022-09-09T01:37:45;14.00;;;10.00;;
37169;SDS011;23062;13.952;100.608;2022-09-09T01:42:35;14.00;;;10.00;;
37169;SDS011;23062;13.952;100.608;2022-09-09T01:47:24;14.00;;;10.00;;
37169;SDS011;23062;13.952;100.608;2022-09-09T01:52:14;14.00;;;10.00;;
37169;SDS011;23062;13.952;100.608;2022-09-09T01:57:21;13.00;;;9.00;;
37169;SDS011;23062;13.952;100.608;2022-09-09T02:02:30;12.00;;;9.00;;
37169;SDS011;23062;13.952;100.608;2022-09-09T02:12:22;11.00;;;8.00;;
37169;SDS011;23062;13.952;100.608;2022-09-09T02:17:14;6.00;;;4.00;;
37169;SDS011;23062;13.952;100.608;2022-09-09T02:22:05;6.00;;;4.00;;
37169;SDS011;23062;13.952;100.608;2022-09-09T02:26:54;7.00;;;5.00;;
37169;SDS011;23062;13.952;100.608;2022-09-09T02:31:47;4.00;;;3.00;;
37169;SDS011;23062;13.952;100.608;2022-09-09T02:36:37;6.00;;;4.00;;
37169;SDS011;23062;13.952;100.608;2022-09-09T02:41:33;5.00;;;3.00;;
37169;SDS011;23062;13.952;100.608;2022-09-09T02:56:35;2.00;;;1.00;;
37169;SDS011;23062;13.952;100.608;2022-09-09T03:01:26;2.00;;;1.00;;
37169;SDS011;23062;13.952;100.608;2022-09-09T03:06:15;2.00;;;1.00;;
37169;SDS011;23062;13.952;100.608;2022-09-09T03:11:04;1.00;;;0.00;;
37169;SDS011;23062;13.952;100.608;2022-09-09T03:15:54;1.00;;;0.00;;
37169;SDS011;23062;13.952;100.608;2022-09-09T03:20:43;2.00;;;1.00;;
37169;SDS011;23062;13.952;100.608;2022-09-09T03:25:35;2.00;;;1.00;;
37169;SDS011;23062;13.952;100.608;2022-09-09T03:30:25;3.00;;;2.00;;
37169;SDS011;23062;13.952;100.608;2022-09-09T03:35:15;4.00;;;2.00;;
37169;SDS011;23062;13.952;100.608;2022-09-09T03:40:06;4.00;;;2.00;;
37169;SDS011;23062;13.952;100.608;2022-09-09T03:44:57;2.00;;;1.00;;
37169;SDS011;23062;13.952;100.608;2022-09-09T03:49:48;2.00;;;1.00;;
37169;SDS011;23062;13.952;100.608;2022-09-09T03:54:38;2.00;;;1.00;;
37169;SDS011;23062;13.952;100.608;2022-09-09T03:59:29;4.00;;;2.00;;
37169;SDS011;23062;13.952;100.608;2022-09-09T04:04:18;2.00;;;1.00;;
37169;SDS011;23062;13.952;100.608;2022-09-09T04:09:07;3.00;;;2.00;;
37169;SDS011;23062;13.952;100.608;2022-09-09T04:13:57;2.00;;;1.00;;
37169;SDS011;23062;13.952;100.608;2022-09-09T04:18:46;2.00;;;1.00;;
37169;SDS011;23062;13.952;100.608;2022-09-09T04:23:35;2.00;;;1.00;;
37169;SDS011;23062;13.952;100.608;2022-09-09T04:28:26;3.00;;;1.00;;
37169;SDS011;23062;13.952;100.608;2022-09-09T04:33:17;2.00;;;1.00;;
37169;SDS011;23062;13.952;100.608;2022-09-09T04:38:06;2.00;;;1.00;;
37169;SDS011;23062;13.952;100.608;2022-09-09T04:43:01;1.00;;;0.00;;
37169;SDS011;23062;13.952;100.608;2022-09-09T04:47:51;3.00;;;1.00;;
37169;SDS011;23062;13.952;100.608;2022-09-09T04:52:41;2.00;;;1.00;;
37169;SDS011;23062;13.952;100.608;2022-09-09T04:57:30;1.00;;;0.00;;
37169;SDS011;23062;13.952;100.608;2022-09-09T05:02:19;2.00;;;1.00;;
37169;SDS011;23062;13.952;100.608;2022-09-09T05:07:09;2.00;;;1.00;;
37169;SDS011;23062;13.952;100.608;2022-09-09T05:11:58;1.00;;;0.00;;
37169;SDS011;23062;13.952;100.608;2022-09-09T05:16:47;2.00;;;1.00;;
37169;SDS011;23062;13.952;100.608;2022-09-09T05:21:37;1.00;;;0.00;;
37169;SDS011;23062;13.952;100.608;2022-09-09T05:26:26;1.00;;;0.00;;
37169;SDS011;23062;13.952;100.608;2022-09-09T05:31:16;1.00;;;0.00;;
37169;SDS011;23062;13.952;100.608;2022-09-09T05:36:07;1.00;;;0.00;;
37169;SDS011;23062;13.952;100.608;2022-09-09T05:40:59;2.00;;;1.00;;
37169;SDS011;23062;13.952;100.608;2022-09-09T05:45:59;1.00;;;0.00;;
37169;SDS011;23062;13.952;100.608;2022-09-09T05:50:56;1.00;;;0.00;;
37169;SDS011;23062;13.952;100.608;2022-09-09T05:55:46;1.00;;;0.00;;
37169;SDS011;23062;13.952;100.608;2022-09-09T06:00:36;1.00;;;0.00;;
37169;SDS011;23062;13.952;100.608;2022-09-09T06:05:26;2.00;;;1.00;;
37169;SDS011;23062;13.952;100.608;2022-09-09T06:10:16;0.00;;;0.00;;
37169;SDS011;23062;13.952;100.608;2022-09-09T06:15:05;2.00;;;1.00;;
37169;SDS011;23062;13.952;100.608;2022-09-09T06:19:55;2.00;;;1.00;;
37169;SDS011;23062;13.952;100.608;2022-09-09T06:24:44;1.00;;;0.00;;
37169;SDS011;23062;13.952;100.608;2022-09-09T06:29:35;1.00;;;0.00;;
37169;SDS011;23062;13.952;100.608;2022-09-09T06:34:24;1.00;;;0.00;;
37169;SDS011;23062;13.952;100.608;2022-09-09T06:39:15;1.00;;;0.00;;
37169;SDS011;23062;13.952;100.608;2022-09-09T06:44:04;1.00;;;0.00;;
37169;SDS011;23062;13.952;100.608;2022-09-09T06:48:53;3.00;;;1.00;;
37169;SDS011;23062;13.952;100.608;2022-09-09T06:53:46;2.00;;;1.00;;
37169;SDS011;23062;13.952;100.608;2022-09-09T06:58:36;2.00;;;1.00;;
37169;SDS011;23062;13.952;100.608;2022-09-09T07:03:29;4.00;;;2.00;;
37169;SDS011;23062;13.952;100.608;2022-09-09T07:08:18;4.00;;;2.00;;
37169;SDS011;23062;13.952;100.608;2022-09-09T07:13:08;2.00;;;0.93;;
37169;SDS011;23062;13.952;100.608;2022-09-09T07:18:00;2.00;;;1.00;;
37169;SDS011;23062;13.952;100.608;2022-09-09T07:22:49;1.00;;;0.00;;
37169;SDS011;23062;13.952;100.608;2022-09-09T07:27:38;1.00;;;0.00;;
37169;SDS011;23062;13.952;100.608;2022-09-09T07:32:28;1.00;;;0.00;;
37169;SDS011;23062;13.952;100.608;2022-09-09T07:37:18;3.00;;;1.00;;
37169;SDS011;23062;13.952;100.608;2022-09-09T07:42:07;1.00;;;0.00;;
37169;SDS011;23062;13.952;100.608;2022-09-09T07:46:58;1.00;;;0.00;;
37169;SDS011;23062;13.952;100.608;2022-09-09T07:51:47;2.00;;;1.00;;
37169;SDS011;23062;13.952;100.608;2022-09-09T07:56:37;2.00;;;1.00;;
37169;SDS011;23062;13.952;100.608;2022-09-09T08:01:29;1.00;;;0.00;;
37169;SDS011;23062;13.952;100.608;2022-09-09T08:06:20;1.00;;;0.00;;
37169;SDS011;23062;13.952;100.608;2022-09-09T08:11:12;1.00;;;0.00;;
37169;SDS011;23062;13.952;100.608;2022-09-09T08:16:06;2.00;;;1.00;;
37169;SDS011;23062;13.952;100.608;2022-09-09T08:20:56;0.00;;;0.00;;
37169;SDS011;23062;13.952;100.608;2022-09-09T08:25:48;1.00;;;0.00;;
37169;SDS011;23062;13.952;100.608;2022-09-09T08:30:38;1.00;;;0.00;;
37169;SDS011;23062;13.952;100.608;2022-09-09T08:35:28;1.00;;;0.00;;
37169;SDS011;23062;13.952;100.608;2022-09-09T08:40:22;1.00;;;0.00;;
37169;SDS011;23062;13.952;100.608;2022-09-09T08:50:17;2.00;;;1.00;;
37169;SDS011;23062;13.952;100.608;2022-09-09T09:00:14;3.00;;;1.00;;
37169;SDS011;23062;13.952;100.608;2022-09-09T09:10:02;1.00;;;0.00;;
37169;SDS011;23062;13.952;100.608;2022-09-09T09:14:55;1.00;;;0.00;;
37169;SDS011;23062;13.952;100.608;2022-09-09T09:19:46;1.00;;;0.00;;
37169;SDS011;23062;13.952;100.608;2022-09-09T09:24:48;2.00;;;1.00;;
37169;SDS011;23062;13.952;100.608;2022-09-09T09:29:41;1.00;;;0.00;;
37169;SDS011;23062;13.952;100.608;2022-09-09T09:34:32;1.00;;;0.00;;
37169;SDS011;23062;13.952;100.608;2022-09-09T09:39:22;2.00;;;1.00;;
37169;SDS011;23062;13.952;100.608;2022-09-09T09:49:20;14.00;;;11.00;;
37169;SDS011;23062;13.952;100.608;2022-09-09T09:59:20;29.00;;;22.00;;
37169;SDS011;23062;13.952;100.608;2022-09-09T10:04:20;15.00;;;11.00;;
37169;SDS011;23062;13.952;100.608;2022-09-09T10:09:28;8.00;;;6.00;;
37169;SDS011;23062;13.952;100.608;2022-09-09T10:19:29;2.00;;;1.00;;
37169;SDS011;23062;13.952;100.608;2022-09-09T10:24:38;3.00;;;2.00;;
37169;SDS011;23062;13.952;100.608;2022-09-09T10:29:57;1.00;;;0.00;;
37169;SDS011;23062;13.952;100.608;2022-09-09T10:35:04;1.00;;;0.00;;
37169;SDS011;23062;13.952;100.608;2022-09-09T10:45:17;3.00;;;2.00;;
37169;SDS011;23062;13.952;100.608;2022-09-09T10:55:12;3.00;;;2.00;;
37169;SDS011;23062;13.952;100.608;2022-09-09T11:00:03;4.00;;;3.00;;
37169;SDS011;23062;13.952;100.608;2022-09-09T11:04:58;5.00;;;3.00;;
37169;SDS011;23062;13.952;100.608;2022-09-09T11:09:58;5.00;;;3.00;;
37169;SDS011;23062;13.952;100.608;2022-09-09T11:19:54;4.00;;;2.00;;
37169;SDS011;23062;13.952;100.608;2022-09-09T11:24:45;2.00;;;1.00;;
37169;SDS011;23062;13.952;100.608;2022-09-09T11:29:42;2.00;;;1.00;;
37169;SDS011;23062;13.952;100.608;2022-09-09T11:34:53;2.00;;;1.00;;
37169;SDS011;23062;13.952;100.608;2022-09-09T11:45:09;5.00;;;3.00;;
37169;SDS011;23062;13.952;100.608;2022-09-09T12:00:36;5.00;;;3.00;;
37169;SDS011;23062;13.952;100.608;2022-09-09T12:05:35;7.00;;;4.00;;
37169;SDS011;23062;13.952;100.608;2022-09-09T12:10:29;6.00;;;4.00;;
37169;SDS011;23062;13.952;100.608;2022-09-09T12:15:22;3.00;;;2.00;;
37169;SDS011;23062;13.952;100.608;2022-09-09T12:30:23;6.00;;;4.00;;
37169;SDS011;23062;13.952;100.608;2022-09-09T12:35:22;6.00;;;4.00;;
37169;SDS011;23062;13.952;100.608;2022-09-09T12:40:21;6.00;;;4.00;;
37169;SDS011;23062;13.952;100.608;2022-09-09T12:45:17;6.00;;;4.00;;
37169;SDS011;23062;13.952;100.608;2022-09-09T12:50:19;5.00;;;3.00;;
37169;SDS011;23062;13.952;100.608;2022-09-09T12:55:19;6.00;;;4.00;;
37169;SDS011;23062;13.952;100.608;2022-09-09T13:00:14;6.00;;;4.00;;
37169;SDS011;23062;13.952;100.608;2022-09-09T13:05:15;7.00;;;5.00;;
37169;SDS011;23062;13.952;100.608;2022-09-09T13:10:10;7.00;;;5.00;;
37169;SDS011;23062;13.952;100.608;2022-09-09T13:15:01;7.00;;;4.00;;
37169;SDS011;23062;13.952;100.608;2022-09-09T13:19:51;7.00;;;4.00;;
37169;SDS011;23062;13.952;100.608;2022-09-09T13:24:42;8.00;;;6.00;;
37169;SDS011;23062;13.952;100.608;2022-09-09T13:29:31;7.00;;;5.00;;
37169;SDS011;23062;13.952;100.608;2022-09-09T13:34:31;6.00;;;4.00;;
37169;SDS011;23062;13.952;100.608;2022-09-09T13:39:21;6.00;;;4.00;;
37169;SDS011;23062;13.952;100.608;2022-09-09T13:44:27;7.00;;;3.73;;
37169;SDS011;23062;13.952;100.608;2022-09-09T13:49:19;4.00;;;3.00;;
37169;SDS011;23062;13.952;100.608;2022-09-09T13:54:10;6.00;;;4.00;;
37169;SDS011;23062;13.952;100.608;2022-09-09T13:59:02;4.00;;;3.00;;
37169;SDS011;23062;13.952;100.608;2022-09-09T14:03:52;6.00;;;4.00;;
37169;SDS011;23062;13.952;100.608;2022-09-09T14:08:41;7.00;;;4.67;;
37169;SDS011;23062;13.952;100.608;2022-09-09T14:13:33;5.00;;;3.00;;
37169;SDS011;23062;13.952;100.608;2022-09-09T14:18:23;5.00;;;3.00;;
37169;SDS011;23062;13.952;100.608;2022-09-09T14:23:13;4.00;;;3.00;;
37169;SDS011;23062;13.952;100.608;2022-09-09T14:28:02;8.00;;;5.00;;
37169;SDS011;23062;13.952;100.608;2022-09-09T14:32:51;6.00;;;4.00;;
37169;SDS011;23062;13.952;100.608;2022-09-09T14:37:40;6.00;;;4.00;;
37169;SDS011;23062;13.952;100.608;2022-09-09T14:42:31;5.00;;;3.00;;
37169;SDS011;23062;13.952;100.608;2022-09-09T14:47:22;5.00;;;3.00;;
37169;SDS011;23062;13.952;100.608;2022-09-09T14:52:12;5.00;;;3.00;;
37169;SDS011;23062;13.952;100.608;2022-09-09T14:57:03;5.00;;;3.00;;
37169;SDS011;23062;13.952;100.608;2022-09-09T15:01:52;4.00;;;3.00;;
37169;SDS011;23062;13.952;100.608;2022-09-09T15:06:41;5.00;;;3.00;;
37169;SDS011;23062;13.952;100.608;2022-09-09T15:11:36;6.00;;;4.00;;
37169;SDS011;23062;13.952;100.608;2022-09-09T15:16:26;7.00;;;5.00;;
37169;SDS011;23062;13.952;100.608;2022-09-09T15:21:17;5.00;;;3.00;;
37169;SDS011;23062;13.952;100.608;2022-09-09T15:26:08;4.00;;;3.00;;
37169;SDS011;23062;13.952;100.608;2022-09-09T15:30:59;5.00;;;4.00;;
37169;SDS011;23062;13.952;100.608;2022-09-09T15:35:53;5.00;;;3.00;;
37169;SDS011;23062;13.952;100.608;2022-09-09T15:40:42;5.00;;;3.00;;
37169;SDS011;23062;13.952;100.608;2022-09-09T15:45:33;4.00;;;3.00;;
37169;SDS011;23062;13.952;100.608;2022-09-09T15:50:22;5.00;;;3.00;;
37169;SDS011;23062;13.952;100.608;2022-09-09T15:55:12;3.00;;;2.00;;
37169;SDS011;23062;13.952;100.608;2022-09-09T16:00:03;5.00;;;3.00;;
37169;SDS011;23062;13.952;100.608;2022-09-09T16:04:53;6.00;;;3.73;;
37169;SDS011;23062;13.952;100.608;2022-09-09T16:09:47;5.00;;;3.00;;
37169;SDS011;23062;13.952;100.608;2022-09-09T16:14:38;6.00;;;4.00;;
37169;SDS011;23062;13.952;100.608;2022-09-09T16:19:29;4.00;;;2.00;;
37169;SDS011;23062;13.952;100.608;2022-09-09T16:24:19;4.00;;;3.00;;
37169;SDS011;23062;13.952;100.608;2022-09-09T16:29:08;4.00;;;2.00;;
37169;SDS011;23062;13.952;100.608;2022-09-09T16:33:58;3.00;;;2.00;;
37169;SDS011;23062;13.952;100.608;2022-09-09T16:38:48;4.00;;;2.00;;
37169;SDS011;23062;13.952;100.608;2022-09-09T16:43:38;4.00;;;2.00;;
37169;SDS011;23062;13.952;100.608;2022-09-09T16:48:31;5.00;;;3.00;;
37169;SDS011;23062;13.952;100.608;2022-09-09T16:53:22;4.00;;;2.00;;
37169;SDS011;23062;13.952;100.608;2022-09-09T16:58:11;5.00;;;3.00;;
37169;SDS011;23062;13.952;100.608;2022-09-09T17:03:01;3.00;;;2.00;;
37169;SDS011;23062;13.952;100.608;2022-09-09T17:07:51;4.00;;;2.00;;
37169;SDS011;23062;13.952;100.608;2022-09-09T17:12:42;5.00;;;3.00;;
37169;SDS011;23062;13.952;100.608;2022-09-09T17:17:32;3.00;;;2.00;;
37169;SDS011;23062;13.952;100.608;2022-09-09T17:22:22;2.00;;;1.00;;
37169;SDS011;23062;13.952;100.608;2022-09-09T17:27:12;3.00;;;2.00;;
37169;SDS011;23062;13.952;100.608;2022-09-09T17:32:02;5.00;;;3.00;;
37169;SDS011;23062;13.952;100.608;2022-09-09T17:36:52;3.00;;;2.00;;
37169;SDS011;23062;13.952;100.608;2022-09-09T17:41:41;4.00;;;2.00;;
37169;SDS011;23062;13.952;100.608;2022-09-09T17:46:31;5.00;;;3.00;;
37169;SDS011;23062;13.952;100.608;2022-09-09T17:51:22;2.00;;;1.00;;
37169;SDS011;23062;13.952;100.608;2022-09-09T17:56:15;2.00;;;1.00;;
37169;SDS011;23062;13.952;100.608;2022-09-09T18:01:08;1.00;;;0.00;;
37169;SDS011;23062;13.952;100.608;2022-09-09T18:05:59;2.00;;;1.00;;
37169;SDS011;23062;13.952;100.608;2022-09-09T18:10:52;2.00;;;0.93;;
37169;SDS011;23062;13.952;100.608;2022-09-09T18:15:42;2.00;;;1.00;;
37169;SDS011;23062;13.952;100.608;2022-09-09T18:20:32;3.00;;;2.00;;
37169;SDS011;23062;13.952;100.608;2022-09-09T18:25:21;6.00;;;4.00;;
37169;SDS011;23062;13.952;100.608;2022-09-09T18:30:11;3.00;;;2.00;;
37169;SDS011;23062;13.952;100.608;2022-09-09T18:35:00;4.00;;;3.00;;
37169;SDS011;23062;13.952;100.608;2022-09-09T18:39:50;3.00;;;2.00;;
37169;SDS011;23062;13.952;100.608;2022-09-09T18:44:40;4.00;;;2.00;;
37169;SDS011;23062;13.952;100.608;2022-09-09T18:49:29;2.00;;;1.00;;
37169;SDS011;23062;13.952;100.608;2022-09-09T18:54:20;2.00;;;1.00;;
37169;SDS011;23062;13.952;100.608;2022-09-09T18:59:11;4.00;;;2.00;;
37169;SDS011;23062;13.952;100.608;2022-09-09T19:04:02;1.00;;;0.00;;
37169;SDS011;23062;13.952;100.608;2022-09-09T19:08:53;2.00;;;1.00;;
37169;SDS011;23062;13.952;100.608;2022-09-09T19:13:48;2.00;;;1.00;;
37169;SDS011;23062;13.952;100.608;2022-09-09T19:18:38;1.00;;;0.00;;
37169;SDS011;23062;13.952;100.608;2022-09-09T19:23:30;1.00;;;0.00;;
37169;SDS011;23062;13.952;100.608;2022-09-09T19:28:20;2.00;;;1.00;;
37169;SDS011;23062;13.952;100.608;2022-09-09T19:33:10;1.00;;;0.00;;
37169;SDS011;23062;13.952;100.608;2022-09-09T19:38:00;1.00;;;0.00;;
37169;SDS011;23062;13.952;100.608;2022-09-09T19:42:49;1.00;;;0.00;;
37169;SDS011;23062;13.952;100.608;2022-09-09T19:47:40;2.00;;;1.00;;
37169;SDS011;23062;13.952;100.608;2022-09-09T19:52:29;2.00;;;1.00;;
37169;SDS011;23062;13.952;100.608;2022-09-09T19:57:19;2.00;;;1.00;;
37169;SDS011;23062;13.952;100.608;2022-09-09T20:02:10;1.00;;;0.00;;
37169;SDS011;23062;13.952;100.608;2022-09-09T20:07:01;2.00;;;1.00;;
37169;SDS011;23062;13.952;100.608;2022-09-09T20:11:50;2.00;;;1.00;;
37169;SDS011;23062;13.952;100.608;2022-09-09T20:16:40;1.00;;;0.00;;
37169;SDS011;23062;13.952;100.608;2022-09-09T20:21:34;1.00;;;0.00;;
37169;SDS011;23062;13.952;100.608;2022-09-09T20:26:24;2.00;;;1.00;;
37169;SDS011;23062;13.952;100.608;2022-09-09T20:31:16;1.00;;;0.00;;
37169;SDS011;23062;13.952;100.608;2022-09-09T20:36:10;2.00;;;1.00;;
37169;SDS011;23062;13.952;100.608;2022-09-09T20:41:04;3.00;;;2.00;;
37169;SDS011;23062;13.952;100.608;2022-09-09T20:45:54;3.00;;;2.00;;
37169;SDS011;23062;13.952;100.608;2022-09-09T20:50:46;2.00;;;1.00;;
37169;SDS011;23062;13.952;100.608;2022-09-09T20:55:36;4.00;;;2.00;;
37169;SDS011;23062;13.952;100.608;2022-09-09T21:00:26;2.00;;;1.00;;
37169;SDS011;23062;13.952;100.608;2022-09-09T21:05:16;2.00;;;1.00;;
37169;SDS011;23062;13.952;100.608;2022-09-09T21:10:05;3.00;;;2.00;;
37169;SDS011;23062;13.952;100.608;2022-09-09T21:14:56;2.00;;;1.00;;
37169;SDS011;23062;13.952;100.608;2022-09-09T21:19:46;2.00;;;1.00;;
37169;SDS011;23062;13.952;100.608;2022-09-09T21:24:35;2.00;;;1.00;;
37169;SDS011;23062;13.952;100.608;2022-09-09T21:29:25;3.00;;;2.00;;
37169;SDS011;23062;13.952;100.608;2022-09-09T21:34:14;2.00;;;1.00;;
37169;SDS011;23062;13.952;100.608;2022-09-09T21:39:04;2.00;;;1.00;;
37169;SDS011;23062;13.952;100.608;2022-09-09T21:43:53;2.00;;;1.00;;
37169;SDS011;23062;13.952;100.608;2022-09-09T21:48:42;5.00;;;3.00;;
37169;SDS011;23062;13.952;100.608;2022-09-09T21:53:32;5.00;;;3.00;;
37169;SDS011;23062;13.952;100.608;2022-09-09T21:58:22;2.00;;;1.00;;
37169;SDS011;23062;13.952;100.608;2022-09-09T22:03:12;3.00;;;2.00;;
37169;SDS011;23062;13.952;100.608;2022-09-09T22:08:02;2.00;;;1.00;;
37169;SDS011;23062;13.952;100.608;2022-09-09T22:12:51;3.00;;;2.00;;
37169;SDS011;23062;13.952;100.608;2022-09-09T22:17:43;5.00;;;3.00;;
37169;SDS011;23062;13.952;100.608;2022-09-09T22:22:32;4.00;;;2.00;;
37169;SDS011;23062;13.952;100.608;2022-09-09T22:27:22;7.00;;;4.00;;
37169;SDS011;23062;13.952;100.608;2022-09-09T22:32:11;4.00;;;3.00;;
37169;SDS011;23062;13.952;100.608;2022-09-09T22:37:00;4.00;;;2.00;;
37169;SDS011;23062;13.952;100.608;2022-09-09T22:41:50;5.00;;;3.00;;
37169;SDS011;23062;13.952;100.608;2022-09-09T22:46:40;4.00;;;3.00;;
37169;SDS011;23062;13.952;100.608;2022-09-09T22:51:32;5.00;;;3.00;;
37169;SDS011;23062;13.952;100.608;2022-09-09T22:56:21;6.00;;;4.00;;
37169;SDS011;23062;13.952;100.608;2022-09-09T23:01:13;3.00;;;2.00;;
37169;SDS011;23062;13.952;100.608;2022-09-09T23:06:11;5.00;;;3.00;;
37169;SDS011;23062;13.952;100.608;2022-09-09T23:11:06;5.00;;;3.00;;
37169;SDS011;23062;13.952;100.608;2022-09-09T23:15:58;9.00;;;6.00;;
37169;SDS011;23062;13.952;100.608;2022-09-09T23:20:58;7.00;;;5.00;;
37169;SDS011;23062;13.952;100.608;2022-09-09T23:25:45;7.00;;;4.00;;
37169;SDS011;23062;13.952;100.608;2022-09-09T23:30:37;7.00;;;4.00;;
37169;SDS011;23062;13.952;100.608;2022-09-09T23:35:26;6.00;;;4.00;;
